createdAt,value
2023-09-17T00:01:40.814Z,101134.31
2023-09-17T00:04:08.624Z,101131.63
2023-09-17T00:06:36.379Z,101130.78
2023-09-17T00:09:04.809Z,101124.38
2023-09-17T00:11:33.872Z,101131.09
2023-09-17T00:14:01.527Z,101131.59
2023-09-17T00:16:32.455Z,101134.75
2023-09-17T00:19:00.700Z,101132.88
2023-09-17T00:21:28.321Z,101128.88
2023-09-17T00:23:56.006Z,101135.78
2023-09-17T00:26:23.714Z,101125.91
2023-09-17T00:28:53.508Z,101135.06
2023-09-17T00:31:21.297Z,101128.28
2023-09-17T00:33:49.207Z,101132.53
2023-09-17T00:36:17.054Z,101133.69
2023-09-17T00:38:44.613Z,101134.31
2023-09-17T00:41:12.273Z,101133.38
2023-09-17T00:43:40.002Z,101131.94
2023-09-17T00:46:09.537Z,101133.72
2023-09-17T00:48:38.438Z,101140.38
2023-09-17T00:51:06.601Z,101142.50
2023-09-17T00:53:34.798Z,101137.78
2023-09-17T00:56:02.783Z,101135.34
2023-09-17T00:58:32.978Z,101137.00
2023-09-17T01:01:01.973Z,101137.81
2023-09-17T01:03:32.301Z,101132.31
2023-09-17T01:06:04.732Z,101129.13
2023-09-17T01:08:33.113Z,101130.16
2023-09-17T01:11:02.522Z,101130.88
2023-09-17T01:13:30.524Z,101131.25
2023-09-17T01:16:00.405Z,101124.22
2023-09-17T01:18:28.823Z,101129.25
2023-09-17T01:21:06.156Z,101126.66
2023-09-17T01:23:38.952Z,101122.19
2023-09-17T01:26:14.525Z,101126.91
2023-09-17T01:28:43.707Z,101122.66
2023-09-17T01:31:11.896Z,101121.03
2023-09-17T01:33:39.566Z,101117.28
2023-09-17T01:36:12.301Z,101118.34
2023-09-17T01:38:47.210Z,101118.72
2023-09-17T01:41:16.663Z,101115.66
2023-09-17T01:43:46.840Z,101126.66
2023-09-17T01:46:17.537Z,101125.03
2023-09-17T01:48:47.772Z,101124.44
2023-09-17T01:51:15.779Z,101122.91
2023-09-17T01:53:43.906Z,101129.81
2023-09-17T01:56:14.364Z,101127.13
2023-09-17T01:58:42.079Z,101122.19
2023-09-17T02:01:11.414Z,101125.13
2023-09-17T02:03:39.200Z,101125.50
2023-09-17T02:06:07.010Z,101123.16
2023-09-17T02:08:40.278Z,101129.69
2023-09-17T02:11:07.882Z,101127.59
2023-09-17T02:13:35.574Z,101128.88
2023-09-17T02:16:04.018Z,101121.63
2023-09-17T02:18:33.111Z,101118.81
2023-09-17T02:21:00.752Z,101127.34
2023-09-17T02:23:28.368Z,101123.72
2023-09-17T02:25:56.014Z,101121.41
2023-09-17T02:28:23.774Z,101121.50
2023-09-17T02:30:52.900Z,101121.03
2023-09-17T02:33:20.509Z,101120.13
2023-09-17T02:35:51.570Z,101117.53
2023-09-17T02:38:19.409Z,101119.66
2023-09-17T02:40:47.060Z,101121.28
2023-09-17T02:43:14.866Z,101118.47
2023-09-17T02:45:42.985Z,101114.47
2023-09-17T02:48:13.012Z,101110.03
2023-09-17T02:50:41.572Z,101117.06
2023-09-17T02:53:10.611Z,101115.88
2023-09-17T02:55:38.249Z,101111.69
2023-09-17T02:58:06.099Z,101109.44
2023-09-17T03:00:35.283Z,101106.53
2023-09-17T03:03:04.258Z,101105.56
2023-09-17T03:05:32.030Z,101108.06
2023-09-17T03:08:01.741Z,101102.56
2023-09-17T03:10:31.075Z,101108.28
2023-09-17T03:12:58.898Z,101102.78
2023-09-17T03:15:27.303Z,101115.31
2023-09-17T03:17:56.439Z,101116.69
2023-09-17T03:20:24.150Z,101115.88
2023-09-17T03:22:52.061Z,101107.88
2023-09-17T03:25:20.105Z,101109.72
2023-09-17T03:27:51.013Z,101113.81
2023-09-17T03:30:18.633Z,101112.97
2023-09-17T03:33:01.879Z,101105.50
2023-09-17T03:35:35.093Z,101111.16
2023-09-17T03:38:03.078Z,101118.13
2023-09-17T03:40:30.919Z,101114.25
2023-09-17T03:42:59.908Z,101115.25
2023-09-17T03:45:28.208Z,101117.00
2023-09-17T03:47:56.022Z,101108.91
2023-09-17T03:50:24.307Z,101117.88
2023-09-17T03:52:55.295Z,101107.69
2023-09-17T03:55:25.201Z,101112.63
2023-09-17T03:57:54.155Z,101110.78
2023-09-17T04:00:25.892Z,101114.41
2023-09-17T04:02:56.054Z,101111.78
2023-09-17T04:05:25.119Z,101111.91
2023-09-17T04:07:52.868Z,101110.84
2023-09-17T04:10:20.981Z,101112.63
2023-09-17T04:12:48.691Z,101108.44
2023-09-17T04:15:20.162Z,101112.16
2023-09-17T04:17:50.915Z,101116.50
2023-09-17T04:20:19.758Z,101117.91
2023-09-17T04:22:49.972Z,101115.69
2023-09-17T04:25:19.722Z,101121.56
2023-09-17T04:27:48.972Z,101118.44
2023-09-17T04:30:19.816Z,101132.66
2023-09-17T04:32:50.482Z,101124.31
2023-09-17T04:35:19.508Z,101124.16
2023-09-17T04:37:50.205Z,101126.09
2023-09-17T04:40:25.829Z,101129.56
2023-09-17T04:42:54.176Z,101139.72
2023-09-17T04:45:34.620Z,101138.88
2023-09-17T04:48:05.987Z,101139.19
2023-09-17T04:50:35.035Z,101150.75
2023-09-17T04:53:03.190Z,101147.03
2023-09-17T04:55:31.235Z,101146.50
2023-09-17T04:57:59.122Z,101144.53
2023-09-17T05:00:27.046Z,101146.72
2023-09-17T05:02:54.792Z,101144.03
2023-09-17T05:05:26.460Z,101145.09
2023-09-17T05:07:54.827Z,101143.94
2023-09-17T05:10:22.869Z,101145.97
2023-09-17T05:12:50.537Z,101127.75
2023-09-17T05:15:18.377Z,101138.50
2023-09-17T05:17:46.035Z,101140.75
2023-09-17T05:20:13.815Z,101138.25
2023-09-17T05:22:42.747Z,101144.47
2023-09-17T05:25:11.647Z,101143.34
2023-09-17T05:27:39.483Z,101152.44
2023-09-17T05:30:08.985Z,101150.91
2023-09-17T05:32:37.045Z,101156.75
2023-09-17T05:35:05.459Z,101166.03
2023-09-17T05:37:33.165Z,101173.06
2023-09-17T05:40:06.536Z,101176.66
2023-09-17T05:42:35.109Z,101185.69
2023-09-17T05:45:02.967Z,101174.88
2023-09-17T05:47:30.926Z,101173.28
2023-09-17T05:50:00.402Z,101180.75
2023-09-17T05:52:32.339Z,101172.25
2023-09-17T05:55:02.000Z,101178.38
2023-09-17T05:57:31.266Z,101179.53
2023-09-17T05:59:59.208Z,101184.47
2023-09-17T06:02:28.416Z,101183.13
2023-09-17T06:04:57.246Z,101176.84
2023-09-17T06:07:26.034Z,101195.09
2023-09-17T06:09:53.695Z,101181.78
2023-09-17T06:12:21.323Z,101188.13
2023-09-17T06:14:50.468Z,101185.34
2023-09-17T06:17:18.237Z,101186.53
2023-09-17T06:19:45.894Z,101186.66
2023-09-17T06:22:13.595Z,101183.28
2023-09-17T06:24:41.342Z,101185.41
2023-09-17T06:27:08.995Z,101191.16
2023-09-17T06:29:36.648Z,101198.06
2023-09-17T06:32:06.283Z,101190.13
2023-09-17T06:34:34.192Z,101181.72
2023-09-17T06:37:02.335Z,101190.63
2023-09-17T06:39:30.020Z,101188.28
2023-09-17T06:41:57.809Z,101195.66
2023-09-17T06:44:25.437Z,101193.34
2023-09-17T06:46:53.202Z,101195.09
2023-09-17T06:49:22.287Z,101185.50
2023-09-17T06:51:50.171Z,101195.22
2023-09-17T06:54:17.776Z,101191.22
2023-09-17T06:56:45.428Z,101193.81
2023-09-17T06:59:13.115Z,101196.16
2023-09-17T07:01:42.936Z,101188.22
2023-09-17T07:04:13.235Z,101182.69
2023-09-17T07:06:42.499Z,101181.75
2023-09-17T07:09:10.142Z,101176.81
2023-09-17T07:11:37.736Z,101175.09
2023-09-17T07:14:11.089Z,101180.31
2023-09-17T07:16:40.025Z,101178.34
2023-09-17T07:19:07.772Z,101180.06
2023-09-17T07:21:35.353Z,101185.09
2023-09-17T07:24:04.942Z,101188.50
2023-09-17T07:26:32.592Z,101203.25
2023-09-17T07:29:00.287Z,101212.34
2023-09-17T07:31:28.014Z,101218.19
2023-09-17T07:33:55.766Z,101203.03
2023-09-17T07:36:23.503Z,101206.28
2023-09-17T07:38:52.782Z,101200.81
2023-09-17T07:41:21.700Z,101203.44
2023-09-17T07:43:49.407Z,101203.66
2023-09-17T07:46:17.273Z,101206.44
2023-09-17T07:48:47.382Z,101206.28
2023-09-17T07:51:15.087Z,101203.97
2023-09-17T07:53:43.004Z,101201.34
2023-09-17T07:56:11.486Z,101206.34
2023-09-17T07:58:40.473Z,101206.94
2023-09-17T08:01:08.180Z,101200.53
2023-09-17T08:03:35.956Z,101206.56
2023-09-17T08:06:04.193Z,101203.31
2023-09-17T08:08:31.875Z,101194.59
2023-09-17T08:10:59.521Z,101203.41
2023-09-17T08:13:27.400Z,101198.97
2023-09-17T08:15:56.448Z,101203.72
2023-09-17T08:18:24.085Z,101196.75
2023-09-17T08:20:51.615Z,101200.66
2023-09-17T08:23:19.592Z,101208.91
2023-09-17T08:25:47.373Z,101206.00
2023-09-17T08:28:16.538Z,101207.13
2023-09-17T08:30:44.210Z,101202.06
2023-09-17T08:33:13.156Z,101202.19
2023-09-17T08:35:41.033Z,101207.41
2023-09-17T08:38:10.240Z,101208.63
2023-09-17T08:40:40.464Z,101201.16
2023-09-17T08:43:08.180Z,101206.44
2023-09-17T08:45:35.932Z,101206.56
2023-09-17T08:48:03.881Z,101207.53
2023-09-17T08:50:36.621Z,101205.72
2023-09-17T08:53:08.725Z,101204.75
2023-09-17T08:55:36.796Z,101205.91
2023-09-17T08:58:13.629Z,101214.66
2023-09-17T09:00:46.865Z,101202.75
2023-09-17T09:03:19.445Z,101203.28
2023-09-17T09:05:51.779Z,101209.81
2023-09-17T09:08:19.547Z,101207.66
2023-09-17T09:10:47.354Z,101207.13
2023-09-17T09:13:15.297Z,101197.09
2023-09-17T09:15:43.270Z,101201.44
2023-09-17T09:18:11.023Z,101199.56
2023-09-17T09:20:39.274Z,101189.28
2023-09-17T09:23:08.636Z,101192.03
2023-09-17T09:25:36.851Z,101189.03
2023-09-17T09:28:04.852Z,101190.44
2023-09-17T09:30:32.980Z,101186.63
2023-09-17T09:33:00.940Z,101179.81
2023-09-17T09:35:31.208Z,101195.88
2023-09-17T09:37:59.156Z,101185.25
2023-09-17T09:40:28.200Z,101183.38
2023-09-17T09:42:55.989Z,101180.41
2023-09-17T09:45:24.550Z,101184.47
2023-09-17T09:47:52.939Z,101179.91
2023-09-17T09:50:24.435Z,101173.38
2023-09-17T09:52:52.295Z,101164.13
2023-09-17T09:55:21.314Z,101169.03
2023-09-17T09:57:50.402Z,101166.03
2023-09-17T10:00:21.405Z,101172.84
2023-09-17T10:02:49.328Z,101173.13
2023-09-17T10:05:19.678Z,101167.13
2023-09-17T10:07:49.282Z,101163.91
2023-09-17T10:10:17.100Z,101173.69
2023-09-17T10:12:44.813Z,101159.81
2023-09-17T10:15:14.941Z,101162.25
2023-09-17T10:17:43.253Z,101154.38
2023-09-17T10:20:12.768Z,101154.38
2023-09-17T10:22:41.606Z,101153.00
2023-09-17T10:25:11.200Z,101150.56
2023-09-17T10:27:39.503Z,101158.72
2023-09-17T10:30:10.486Z,101162.25
2023-09-17T10:32:39.451Z,101153.81
2023-09-17T10:35:09.213Z,101161.69
2023-09-17T10:37:38.970Z,101160.06
2023-09-17T10:40:10.726Z,101161.69
2023-09-17T10:42:39.485Z,101160.59
2023-09-17T10:45:09.837Z,101154.84
2023-09-17T10:47:42.073Z,101157.78
2023-09-17T10:50:10.947Z,101162.91
2023-09-17T10:52:38.599Z,101155.50
2023-09-17T10:55:09.059Z,101154.94
2023-09-17T10:57:41.589Z,101155.97
2023-09-17T11:00:14.843Z,101146.88
2023-09-17T11:02:49.482Z,101150.13
2023-09-17T11:05:20.618Z,101140.53
2023-09-17T11:07:49.551Z,101143.25
2023-09-17T11:10:29.517Z,101142.09
2023-09-17T11:13:00.244Z,101131.44
2023-09-17T11:15:28.115Z,101131.06
2023-09-17T11:18:02.649Z,101130.69
2023-09-17T11:20:30.417Z,101125.94
2023-09-17T11:22:58.495Z,101126.09
2023-09-17T11:25:36.965Z,101117.94
2023-09-17T11:28:12.569Z,101124.78
2023-09-17T11:30:59.601Z,101130.75
2023-09-17T11:33:28.985Z,101133.41
2023-09-17T11:35:57.976Z,101135.88
2023-09-17T11:38:26.484Z,101126.75
2023-09-17T11:41:08.099Z,101126.84
2023-09-17T11:43:37.694Z,101126.16
2023-09-17T11:46:06.952Z,101115.34
2023-09-17T11:48:36.823Z,101113.44
2023-09-17T11:51:25.294Z,101114.06
2023-09-17T11:53:55.396Z,101106.06
2023-09-17T11:56:23.336Z,101119.31
2023-09-17T11:59:01.783Z,101124.56
2023-09-17T12:01:32.162Z,101128.66
2023-09-17T12:04:01.745Z,101127.56
2023-09-17T12:06:30.152Z,101128.56
2023-09-17T12:09:13.048Z,101126.34
2023-09-17T12:11:57.118Z,101115.94
2023-09-17T12:14:25.376Z,101114.19
2023-09-17T12:16:54.615Z,101116.00
2023-09-17T12:19:23.788Z,101119.53
2023-09-17T12:21:54.677Z,101123.09
2023-09-17T12:24:24.696Z,101112.50
2023-09-17T12:27:30.808Z,101108.03
2023-09-17T12:29:58.630Z,101104.06
2023-09-17T12:32:30.966Z,101110.34
2023-09-17T12:35:00.005Z,101110.84
2023-09-17T12:37:28.453Z,101114.16
2023-09-17T12:39:56.322Z,101110.28
2023-09-17T12:42:23.957Z,101112.59
2023-09-17T12:44:52.373Z,101106.88
2023-09-17T12:47:20.769Z,101107.16
2023-09-17T12:49:48.680Z,101102.38
2023-09-17T12:52:18.175Z,101106.41
2023-09-17T12:54:45.890Z,101101.03
2023-09-17T12:57:13.558Z,101096.53
2023-09-17T12:59:41.947Z,101098.69
2023-09-17T13:02:10.352Z,101094.25
2023-09-17T13:04:39.545Z,101101.56
2023-09-17T13:07:15.453Z,101104.50
2023-09-17T13:09:44.945Z,101097.66
2023-09-17T13:12:12.874Z,101096.16
2023-09-17T13:14:40.741Z,101096.16
2023-09-17T13:17:08.609Z,101091.28
2023-09-17T13:19:36.365Z,101095.94
2023-09-17T13:22:05.215Z,101088.59
2023-09-17T13:24:34.361Z,101098.94
2023-09-17T13:27:05.270Z,101099.53
2023-09-17T13:29:41.505Z,101089.63
2023-09-17T13:32:11.355Z,101082.94
2023-09-17T13:34:39.660Z,101083.41
2023-09-17T13:37:09.359Z,101081.53
2023-09-17T13:39:40.115Z,101064.97
2023-09-17T13:42:09.670Z,101063.66
2023-09-17T13:44:37.342Z,101059.66
2023-09-17T13:47:08.057Z,101052.19
2023-09-17T13:49:35.662Z,101052.47
2023-09-17T13:52:04.346Z,101058.28
2023-09-17T13:54:31.912Z,101057.47
2023-09-17T13:56:59.590Z,101052.00
2023-09-17T13:59:28.559Z,101050.00
2023-09-17T14:01:56.224Z,101042.66
2023-09-17T14:04:24.207Z,101052.25
2023-09-17T14:09:20.353Z,101034.66
2023-09-17T14:11:47.999Z,101031.16
2023-09-17T14:14:15.635Z,101031.47
2023-09-17T14:16:45.339Z,101019.00
2023-09-17T14:19:18.605Z,101019.28
2023-09-17T14:21:46.434Z,101020.94
2023-09-17T14:24:14.120Z,101019.03
2023-09-17T14:26:41.780Z,101016.91
2023-09-17T14:29:09.507Z,101021.00
2023-09-17T14:31:40.139Z,101018.03
2023-09-17T14:34:11.813Z,101010.97
2023-09-17T14:36:39.382Z,101009.13
2023-09-17T14:39:07.558Z,100997.72
2023-09-17T14:41:36.370Z,100995.00
2023-09-17T14:44:03.989Z,100996.34
2023-09-17T14:46:32.863Z,100996.91
2023-09-17T14:49:00.486Z,100994.75
2023-09-17T14:51:29.403Z,100995.31
2023-09-17T14:53:57.005Z,100996.66
2023-09-17T14:56:24.591Z,100992.59
2023-09-17T14:58:52.687Z,100992.59
2023-09-17T15:03:54.473Z,101001.78
2023-09-17T15:06:22.198Z,100990.53
2023-09-17T15:08:51.539Z,100988.59
2023-09-17T15:11:19.318Z,100988.88
2023-09-17T15:13:47.941Z,100984.75
2023-09-17T15:16:16.434Z,100977.72
2023-09-17T15:18:44.070Z,100976.59
2023-09-17T15:21:11.759Z,100976.00
2023-09-17T15:23:39.319Z,100964.50
2023-09-17T15:26:08.357Z,100975.88
2023-09-17T15:28:35.943Z,100975.31
2023-09-17T15:31:04.674Z,100969.22
2023-09-17T15:33:32.510Z,100972.41
2023-09-17T15:36:00.289Z,100973.53
2023-09-17T15:38:27.825Z,100972.97
2023-09-17T15:40:56.218Z,100977.03
2023-09-17T15:43:25.644Z,100967.44
2023-09-17T15:45:53.331Z,100975.09
2023-09-17T15:48:20.918Z,100968.84
2023-09-17T15:50:52.417Z,100974.03
2023-09-17T15:53:20.311Z,100972.41
2023-09-17T15:55:47.922Z,100970.25
2023-09-17T15:58:16.914Z,100978.97
2023-09-17T16:00:45.903Z,100970.81
2023-09-17T16:03:13.632Z,100966.94
2023-09-17T16:05:41.973Z,100966.84
2023-09-17T16:08:09.664Z,100959.94
2023-09-17T16:10:37.616Z,100963.22
2023-09-17T16:13:05.586Z,100955.81
2023-09-17T16:15:33.501Z,100953.72
2023-09-17T16:18:03.681Z,100960.34
2023-09-17T16:20:31.412Z,100963.66
2023-09-17T16:22:59.170Z,100962.84
2023-09-17T16:25:26.865Z,100967.94
2023-09-17T16:27:54.439Z,100964.13
2023-09-17T16:30:22.258Z,100962.72
2023-09-17T16:32:50.005Z,100968.47
2023-09-17T16:35:19.365Z,100965.72
2023-09-17T16:37:47.461Z,100959.75
2023-09-17T16:40:15.130Z,100964.94
2023-09-17T16:42:53.847Z,100960.88
2023-09-17T16:45:29.841Z,100947.75
2023-09-17T16:47:57.497Z,100950.56
2023-09-17T16:50:29.394Z,100953.31
2023-09-17T16:52:57.362Z,100962.13
2023-09-17T16:55:24.963Z,100956.97
2023-09-17T16:57:52.603Z,100956.28
2023-09-17T17:00:21.483Z,100950.91
2023-09-17T17:02:49.221Z,100958.06
2023-09-17T17:05:17.159Z,100948.31
2023-09-17T17:07:46.192Z,100942.06
2023-09-17T17:10:13.920Z,100941.06
2023-09-17T17:12:41.707Z,100932.34
2023-09-17T17:15:10.016Z,100939.81
2023-09-17T17:17:37.754Z,100932.25
2023-09-17T17:20:08.105Z,100932.00
2023-09-17T17:22:44.182Z,100935.06
2023-09-17T17:25:13.831Z,100929.63
2023-09-17T17:27:41.739Z,100925.03
2023-09-17T17:30:11.336Z,100925.09
2023-09-17T17:32:41.677Z,100922.16
2023-09-17T17:35:10.307Z,100928.25
2023-09-17T17:37:37.949Z,100926.34
2023-09-17T17:40:06.399Z,100932.06
2023-09-17T17:42:35.414Z,100929.34
2023-09-17T17:45:03.677Z,100919.63
2023-09-17T17:47:33.597Z,100924.25
2023-09-17T17:50:01.522Z,100927.81
2023-09-17T17:52:29.296Z,100929.72
2023-09-17T17:54:56.952Z,100935.72
2023-09-17T17:57:24.729Z,100932.19
2023-09-17T17:59:53.644Z,100937.38
2023-09-17T18:02:21.804Z,100932.19
2023-09-17T18:04:49.549Z,100930.03
2023-09-17T18:07:17.216Z,100928.69
2023-09-17T18:09:45.181Z,100936.59
2023-09-17T18:12:13.712Z,100936.03
2023-09-17T18:14:41.451Z,100934.97
2023-09-17T18:17:10.557Z,100927.63
2023-09-17T18:19:38.304Z,100930.63
2023-09-17T18:22:06.102Z,100924.94
2023-09-17T18:24:33.715Z,100929.28
2023-09-17T18:27:01.360Z,100922.78
2023-09-17T18:29:31.346Z,100917.09
2023-09-17T18:31:59.263Z,100910.56
2023-09-17T18:34:28.687Z,100911.94
2023-09-17T18:36:56.559Z,100908.69
2023-09-17T18:39:24.230Z,100910.06
2023-09-17T18:41:51.840Z,100908.13
2023-09-17T18:44:20.019Z,100902.47
2023-09-17T18:46:47.747Z,100902.44
2023-09-17T18:49:19.926Z,100897.03
2023-09-17T18:51:49.457Z,100900.28
2023-09-17T18:54:17.285Z,100895.66
2023-09-17T18:56:45.210Z,100895.41
2023-09-17T18:59:13.127Z,100888.91
2023-09-17T19:01:41.315Z,100894.84
2023-09-17T19:04:09.055Z,100888.31
2023-09-17T19:06:37.493Z,100888.88
2023-09-17T19:09:06.864Z,100884.28
2023-09-17T19:11:35.294Z,100888.88
2023-09-17T19:14:03.268Z,100892.69
2023-09-17T19:16:31.616Z,100884.53
2023-09-17T19:18:59.256Z,100877.75
2023-09-17T19:21:26.987Z,100876.94
2023-09-17T19:23:55.327Z,100880.19
2023-09-17T19:26:24.386Z,100878.56
2023-09-17T19:28:52.011Z,100872.59
2023-09-17T19:31:19.752Z,100872.63
2023-09-17T19:33:47.833Z,100865.00
2023-09-17T19:36:15.525Z,100864.19
2023-09-17T19:38:43.414Z,100861.19
2023-09-17T19:41:11.145Z,100859.59
2023-09-17T19:43:41.881Z,100853.59
2023-09-17T19:46:09.680Z,100857.94
2023-09-17T19:48:37.434Z,100849.25
2023-09-17T19:51:05.082Z,100861.19
2023-09-17T19:53:33.640Z,100858.47
2023-09-17T19:56:01.229Z,100853.06
2023-09-17T19:58:28.997Z,100850.09
2023-09-17T20:00:59.221Z,100857.94
2023-09-17T20:03:27.088Z,100849.28
2023-09-17T20:05:54.892Z,100853.06
2023-09-17T20:08:22.657Z,100844.38
2023-09-17T20:10:50.301Z,100847.91
2023-09-17T20:13:17.933Z,100835.97
2023-09-17T20:15:48.102Z,100834.06
2023-09-17T20:18:17.111Z,100846.00
2023-09-17T20:20:47.405Z,100840.31
2023-09-17T20:23:15.737Z,100828.34
2023-09-17T20:25:45.547Z,100824.84
2023-09-17T20:28:14.708Z,100817.75
2023-09-17T20:30:43.178Z,100822.66
2023-09-17T20:33:11.135Z,100812.34
2023-09-17T20:35:40.633Z,100819.41
2023-09-17T20:38:08.463Z,100819.41
2023-09-17T20:40:36.235Z,100826.47
2023-09-17T20:43:04.305Z,100832.69
2023-09-17T20:45:32.094Z,100825.34
2023-09-17T20:48:00.065Z,100826.72
2023-09-17T20:50:27.700Z,100822.38
2023-09-17T20:52:57.361Z,100822.09
2023-09-17T20:55:27.672Z,100828.34
2023-09-17T20:57:55.488Z,100826.44
2023-09-17T21:00:23.190Z,100810.69
2023-09-17T21:02:51.140Z,100819.94
2023-09-17T21:05:18.806Z,100805.56
2023-09-17T21:07:47.106Z,100809.09
2023-09-17T21:10:16.130Z,100793.06
2023-09-17T21:12:43.706Z,100791.16
2023-09-17T21:15:12.387Z,100787.91
2023-09-17T21:17:42.654Z,100783.03
2023-09-17T21:20:18.722Z,100783.03
2023-09-17T21:22:47.349Z,100772.97
2023-09-17T21:25:17.467Z,100768.91
2023-09-17T21:27:46.821Z,100777.88
2023-09-17T21:30:14.957Z,100774.09
2023-09-17T21:32:43.910Z,100764.84
2023-09-17T21:35:12.792Z,100766.75
2023-09-17T21:37:40.609Z,100767.56
2023-09-17T21:40:09.466Z,100768.94
2023-09-17T21:42:38.809Z,100774.38
2023-09-17T21:45:07.728Z,100776.53
2023-09-17T21:47:35.475Z,100779.00
2023-09-17T21:50:03.455Z,100774.09
2023-09-17T21:52:31.397Z,100769.75
2023-09-17T21:54:59.521Z,100774.38
2023-09-17T21:57:27.516Z,100773.31
2023-09-17T21:59:56.533Z,100776.00
2023-09-17T22:02:24.793Z,100768.13
2023-09-17T22:04:52.542Z,100764.34
2023-09-17T22:07:20.247Z,100754.84
2023-09-17T22:09:47.983Z,100768.97
2023-09-17T22:12:15.717Z,100761.91
2023-09-17T22:14:43.390Z,100760.25
2023-09-17T22:17:12.610Z,100757.03
2023-09-17T22:19:41.729Z,100756.47
2023-09-17T22:22:09.754Z,100761.91
2023-09-17T22:24:37.359Z,100764.06
2023-09-17T22:27:05.590Z,100758.34
2023-09-17T22:29:33.334Z,100751.84
2023-09-17T22:32:01.023Z,100748.06
2023-09-17T22:34:30.108Z,100746.16
2023-09-17T22:36:57.881Z,100742.09
2023-09-17T22:39:25.466Z,100739.09
2023-09-17T22:41:53.521Z,100740.22
2023-09-17T22:44:24.650Z,100751.56
2023-09-17T22:46:53.107Z,100742.63
2023-09-17T22:49:20.816Z,100742.88
2023-09-17T22:51:49.824Z,100740.44
2023-09-17T22:54:17.483Z,100743.94
2023-09-17T22:56:45.140Z,100755.91
2023-09-17T22:59:12.737Z,100757.50
2023-09-17T23:01:40.737Z,100756.16
2023-09-17T23:04:08.776Z,100754.81
2023-09-17T23:06:36.509Z,100747.75
2023-09-17T23:09:05.515Z,100754.53
2023-09-17T23:11:33.252Z,100752.09
2023-09-17T23:14:06.562Z,100751.53
2023-09-17T23:16:34.682Z,100743.94
2023-09-17T23:19:02.475Z,100754.53
2023-09-17T23:21:30.136Z,100752.91
2023-09-17T23:23:59.253Z,100745.00
2023-09-17T23:26:28.928Z,100734.72
2023-09-17T23:28:56.765Z,100734.19
2023-09-17T23:31:26.078Z,100730.94
2023-09-17T23:33:53.700Z,100733.91
2023-09-17T23:36:21.516Z,100717.09
2023-09-17T23:38:50.970Z,100722.78
2023-09-17T23:41:18.860Z,100717.34
2023-09-17T23:43:47.848Z,100710.31
2023-09-17T23:46:15.656Z,100707.03
2023-09-17T23:48:43.344Z,100698.38
2023-09-17T23:51:10.973Z,100692.16
2023-09-17T23:53:38.602Z,100686.19
2023-09-17T23:56:06.168Z,100689.16
2023-09-17T23:58:33.753Z,100683.19
